Elberta, Michigan
Current Conditions -  °F | °C
As of 12:14 AM on Friday 31 Oct 2014 (Local Time) from KFKS Reporting Station
Drizzle Drizzle  
Wind Chill: 39°   Ceiling: 5000
Heat Index: 42°   Visibility: 10mi
Dew Point: 39°   Wind: 6mph
Humidity: 88%   Direction: 340°NNW
Pressure: 29.95"   Gusts: NA
Location:  44.62°N, 86.23°W
Report Text: KFKS 310414Z AUTO 34005KT 10SM -DZ SCT023 BKN050 OVC080 06/04 A2995 RMK AO2 T00570039
Loading
Personal Weather Stations






























Interactive Weather Map
Tropical Storm Tracking
New forecast layout! Learn more

10-Day Weather Forecast

Advertisements
Track Severe Weather on mobile